KECG/ECG METAR and TAF weather

Enter ICAO airport designator
Station Type Date Time Source
KECG METAR 2018/04/20 08:54 UTC NOAA

KECG 200854Z AUTO 29005KT 10SM CLR 03/M01 A3022 RMK AO2 SLP232 T00331006 52007


Station Type Date Time Source
KECG Decoded METAR 2018/04/20 08:54 UTC NOAA

ELIZABETH CITY C/G REGN AIRPORT , NC, United States (KECG) 36-15N 076-10W 11M
Apr 20, 2018 - 04:54 AM EDT / 2018.04.20 0854 UTC
Wind: from the WNW (290 degrees) at 6 MPH (5 KT):0
Visibility: 10 mile(s):0
Sky conditions: clear
Temperature: 37.9 F (3.3 C)
Dew Point: 30.9 F (-0.6 C)
Relative Humidity: 75%
Pressure (altimeter): 30.22 in. Hg (1023 hPa)
Pressure tendency: 0.02 inches (0.7 hPa) higher than three hours ago
ob: KECG 200854Z AUTO 29005KT 10SM CLR 03/M01 A3022 RMK AO2 SLP232 T00331006 52007
cycle: 9

Station Type Date Time Source
KECG TAF 2018/04/20 08:09 UTC NOAA

TAF KECG 200802Z 2008/2106 32009KT P6SM SKC
FM202100 36006KT P6SM SKC


Example: see airport list